SLIP weather

Samaipata Airport
Florida, Santa Cruz Department, Bolivia

Public forecast

Using degrees Celsius for public forecast. Weather courtesy of forecast.io.

METAR (pilot weather report)

Report is more than 6 hours old.

Closest report is Capit├ín Av. Vidal Villagomez Toledo Airport, 21.8 nm (40.3 km) SW. Retrieved 2019/03/10 16:00 UTC (8 days ago):

SLVG 101600Z 00000KT 9999 BKN020 19/13 Q1028

TAF (pilot weather forecast)

Forecast is more than 12 hours old.

Closest forecast is El Trompillo Airport, 46.4 nm (85.9 km) ENE. Retrieved 2019/03/16 06:06 UTC (2 days ago):

TAF SLET 160440Z 1606/1706 35008KT 9999 SCT013 TX32/1619Z TN23/1610Z TEMPO 1608/1612 BKN008 BECMG 1615/1619 35015G25KT BKN015 FEW027TCU TEMPO 1621/1623 BKN020 FEW030CB BECMG 1701/1704 33006KT SCT015